^^
Station Historical Data
Daily Summary for January 13, 2019 Units:  English    Metric   Both
« Previous Day
Next Day »
Daily Weekly Monthly Yearly Custom
  High: Low: Average:
Temperature: 33.7 °F 15.4 °F 22.6 °F
Dew Point: 28.9 °F 13.5 °F 20.3 °F
Humidity: 95% 77% 91%
Wind Speed: 15.0mph 0.0mph 5.4mph
Wind Gust: 19.0mph - -
Wind- - SW
Pressure: 30.34 in 30.16 in -
Precipitation: 0.00 in    
Historical Graphs
 
 
Tabular Data for January 13, 2019
Time Temperature Dew Point Pressure Wind Wind Speed Wind Gust Humidity Rainfall Rate (Hourly) solar Conditions
00:04 15.4 °F 13.5 °F 30.34 in SSW 10.0 mph 19.0 mph 92% 0.00 in 0.00 W/m2
00:09 15.4 °F 13.5 °F 30.34 in SSW 10.0 mph 19.0 mph 92% 0.00 in 0.00 W/m2
00:14 15.5 °F 13.6 °F 30.34 in South 15.0 mph 18.0 mph 92% 0.00 in 0.00 W/m2
00:19 15.6 °F 13.7 °F 30.34 in South 7.0 mph 16.0 mph 92% 0.00 in 0.00 W/m2
00:24 15.7 °F 13.8 °F 30.33 in South 12.0 mph 17.0 mph 92% 0.00 in 0.00 W/m2
00:29 15.8 °F 13.9 °F 30.33 in South 13.0 mph 18.0 mph 92% 0.00 in 0.00 W/m2
00:34 15.9 °F 14.0 °F 30.33 in SSE 15.0 mph 18.0 mph 92% 0.00 in 0.00 W/m2
00:39 15.9 °F 14.0 °F 30.33 in South 13.0 mph 16.0 mph 92% 0.00 in 0.00 W/m2
00:44 16.0 °F 14.1 °F 30.33 in South 11.0 mph 15.0 mph 92% 0.00 in 0.00 W/m2
00:49 16.1 °F 14.2 °F 30.33 in South 8.0 mph 15.0 mph 92% 0.00 in 0.00 W/m2
00:54 16.1 °F 14.2 °F 30.33 in South 9.0 mph 15.0 mph 92% 0.00 in 0.00 W/m2
00:59 16.2 °F 14.3 °F 30.33 in SSW 7.0 mph 15.0 mph 92% 0.00 in 0.00 W/m2
01:04 16.2 °F 14.3 °F 30.33 in South 7.0 mph 11.0 mph 92% 0.00 in 0.00 W/m2
01:09 16.3 °F 14.4 °F 30.33 in South 7.0 mph 12.0 mph 92% 0.00 in 0.00 W/m2
01:14 16.4 °F 14.5 °F 30.33 in SSE 8.0 mph 15.0 mph 92% 0.00 in 0.00 W/m2
01:19 16.5 °F 14.6 °F 30.33 in SSW 10.0 mph 15.0 mph 92% 0.00 in 0.00 W/m2
01:24 16.6 °F 14.7 °F 30.33 in SSW 9.0 mph 15.0 mph 92% 0.00 in 0.00 W/m2
01:29 16.6 °F 14.7 °F 30.33 in SSW 12.0 mph 15.0 mph 92% 0.00 in 0.00 W/m2
01:34 16.8 °F 14.9 °F 30.33 in South 9.0 mph 15.0 mph 92% 0.00 in 0.00 W/m2
01:39 16.9 °F 15.0 °F 30.33 in SSW 10.0 mph 15.0 mph 92% 0.00 in 0.00 W/m2
01:44 17.0 °F 15.1 °F 30.33 in South 8.0 mph 13.0 mph 92% 0.00 in 0.00 W/m2
01:49 17.0 °F 15.1 °F 30.32 in South 8.0 mph 12.0 mph 92% 0.00 in 0.00 W/m2
01:54 17.0 °F 15.1 °F 30.32 in South 8.0 mph 10.0 mph 92% 0.00 in 0.00 W/m2
01:59 17.0 °F 15.1 °F 30.32 in SSE 8.0 mph 13.0 mph 92% 0.00 in 0.00 W/m2
02:04 17.2 °F 15.3 °F 30.32 in SSE 6.0 mph 13.0 mph 92% 0.00 in 0.00 W/m2
02:09 17.3 °F 15.4 °F 30.32 in SSW 9.0 mph 13.0 mph 92% 0.00 in 0.00 W/m2
02:14 17.5 °F 15.8 °F 30.32 in SSE 7.0 mph 13.0 mph 93% 0.00 in 0.00 W/m2
02:19 17.6 °F 15.9 °F 30.32 in SSW 6.0 mph 13.0 mph 93% 0.00 in 0.00 W/m2
02:24 17.7 °F 15.8 °F 30.32 in SSE 10.0 mph 13.0 mph 92% 0.00 in 0.00 W/m2
02:29 17.8 °F 15.9 °F 30.32 in South 11.0 mph 13.0 mph 92% 0.00 in 0.00 W/m2
02:34 17.9 °F 16.0 °F 30.32 in South 11.0 mph 12.0 mph 92% 0.00 in 0.00 W/m2
02:39 18.0 °F 16.1 °F 30.32 in SSW 6.0 mph 11.0 mph 92% 0.00 in 0.00 W/m2
02:44 18.0 °F 16.3 °F 30.32 in South 5.0 mph 10.0 mph 93% 0.00 in 0.00 W/m2
02:49 18.1 °F 16.4 °F 30.31 in SSW 9.0 mph 10.0 mph 93% 0.00 in 0.00 W/m2
02:54 18.0 °F 16.3 °F 30.32 in SSW 9.0 mph 16.0 mph 93% 0.00 in 0.00 W/m2
02:59 18.0 °F 16.3 °F 30.31 in South 12.0 mph 16.0 mph 93% 0.00 in 0.00 W/m2
03:04 18.1 °F 16.4 °F 30.31 in South 10.0 mph 14.0 mph 93% 0.00 in 0.00 W/m2
03:09 18.1 °F 16.4 °F 30.31 in South 6.0 mph 15.0 mph 93% 0.00 in 0.00 W/m2
03:14 18.1 °F 16.4 °F 30.32 in SSW 8.0 mph 15.0 mph 93% 0.00 in 0.00 W/m2
03:19 18.2 °F 16.5 °F 30.32 in South 5.0 mph 11.0 mph 93% 0.00 in 0.00 W/m2
03:24 18.2 °F 16.5 °F 30.31 in South 8.0 mph 12.0 mph 93% 0.00 in 0.00 W/m2
03:29 18.2 °F 16.5 °F 30.31 in SSW 10.0 mph 12.0 mph 93% 0.00 in 0.00 W/m2
03:34 18.2 °F 16.5 °F 30.31 in SSW 4.0 mph 14.0 mph 93% 0.00 in 0.00 W/m2
03:39 18.2 °F 16.5 °F 30.31 in SSW 7.0 mph 14.0 mph 93% 0.00 in 0.00 W/m2
03:44 18.2 °F 16.5 °F 30.31 in SSW 8.0 mph 15.0 mph 93% 0.00 in 0.00 W/m2
03:49 18.3 °F 16.6 °F 30.31 in SSW 7.0 mph 15.0 mph 93% 0.00 in 0.00 W/m2
03:54 18.3 °F 16.6 °F 30.31 in South 10.0 mph 15.0 mph 93% 0.00 in 0.00 W/m2
03:59 18.4 °F 16.7 °F 30.30 in South 11.0 mph 13.0 mph 93% 0.00 in 0.00 W/m2
04:04 18.4 °F 16.7 °F 30.30 in South 8.0 mph 13.0 mph 93% 0.00 in 0.00 W/m2
04:09 18.5 °F 16.8 °F 30.30 in SSW 11.0 mph 13.0 mph 93% 0.00 in 0.00 W/m2
04:14 18.4 °F 16.7 °F 30.30 in South 11.0 mph 14.0 mph 93% 0.00 in 0.00 W/m2
04:19 18.5 °F 16.8 °F 30.30 in South 9.0 mph 14.0 mph 93% 0.00 in 0.00 W/m2
04:24 18.5 °F 16.8 °F 30.29 in South 9.0 mph 13.0 mph 93% 0.00 in 0.00 W/m2
04:29 18.6 °F 16.9 °F 30.29 in South 9.0 mph 13.0 mph 93% 0.00 in 0.00 W/m2
04:34 18.5 °F 16.8 °F 30.29 in SSE 9.0 mph 15.0 mph 93% 0.00 in 0.00 W/m2
04:39 18.5 °F 16.8 °F 30.29 in SSW 9.0 mph 15.0 mph 93% 0.00 in 0.00 W/m2
04:44 18.5 °F 16.8 °F 30.29 in SSW 7.0 mph 14.0 mph 93% 0.00 in 0.00 W/m2
04:49 18.6 °F 16.9 °F 30.29 in South 7.0 mph 14.0 mph 93% 0.00 in 0.00 W/m2
04:54 18.5 °F 16.8 °F 30.29 in SSW 7.0 mph 14.0 mph 93% 0.00 in 0.00 W/m2
04:59 18.6 °F 16.9 °F 30.28 in South 9.0 mph 14.0 mph 93% 0.00 in 0.00 W/m2
05:04 18.6 °F 16.9 °F 30.28 in South 11.0 mph 12.0 mph 93% 0.00 in 0.00 W/m2
05:09 18.7 °F 17.0 °F 30.28 in South 6.0 mph 11.0 mph 93% 0.00 in 0.00 W/m2
05:14 18.7 °F 17.0 °F 30.28 in South 10.0 mph 11.0 mph 93% 0.00 in 0.00 W/m2
05:19 18.8 °F 17.1 °F 30.28 in South 8.0 mph 11.0 mph 93% 0.00 in 0.00 W/m2
05:24 18.8 °F 17.1 °F 30.28 in South 4.0 mph 11.0 mph 93% 0.00 in 0.00 W/m2
05:29 18.9 °F 17.2 °F 30.28 in South 5.0 mph 9.0 mph 93% 0.00 in 0.00 W/m2
05:34 18.9 °F 17.2 °F 30.27 in South 11.0 mph 13.0 mph 93% 0.00 in 0.00 W/m2
05:39 19.0 °F 17.3 °F 30.27 in South 6.0 mph 14.0 mph 93% 0.00 in 0.00 W/m2
05:44 19.0 °F 17.3 °F 30.27 in South 9.0 mph 14.0 mph 93% 0.00 in 0.00 W/m2
05:49 19.0 °F 17.3 °F 30.27 in South 6.0 mph 12.0 mph 93% 0.00 in 0.00 W/m2
05:54 19.1 °F 17.4 °F 30.27 in South 5.0 mph 12.0 mph 93% 0.00 in 0.00 W/m2
05:59 19.1 °F 17.4 °F 30.27 in SSW 7.0 mph 12.0 mph 93% 0.00 in 0.00 W/m2
06:04 19.2 °F 17.5 °F 30.27 in South 8.0 mph 11.0 mph 93% 0.00 in 0.00 W/m2
06:09 19.3 °F 17.6 °F 30.27 in SSW 7.0 mph 11.0 mph 93% 0.00 in 0.00 W/m2
06:14 19.4 °F 17.7 °F 30.27 in SSW 7.0 mph 12.0 mph 93% 0.00 in 0.00 W/m2
06:19 19.5 °F 17.8 °F 30.27 in South 5.0 mph 12.0 mph 93% 0.00 in 0.00 W/m2
06:24 19.5 °F 17.8 °F 30.27 in South 4.0 mph 10.0 mph 93% 0.00 in 0.00 W/m2
06:29 19.5 °F 17.8 °F 30.27 in South 6.0 mph 10.0 mph 93% 0.00 in 0.00 W/m2
06:34 19.6 °F 17.9 °F 30.27 in South 6.0 mph 10.0 mph 93% 0.00 in 0.00 W/m2
06:39 19.7 °F 18.0 °F 30.27 in South 4.0 mph 11.0 mph 93% 0.00 in 0.00 W/m2
06:44 19.7 °F 18.0 °F 30.27 in South 8.0 mph 11.0 mph 93% 0.00 in 0.00 W/m2
06:49 19.7 °F 18.0 °F 30.26 in South 7.0 mph 9.0 mph 93% 0.00 in 0.00 W/m2
06:54 19.8 °F 18.1 °F 30.26 in South 5.0 mph 11.0 mph 93% 0.00 in 0.00 W/m2
06:59 19.8 °F 18.1 °F 30.27 in SSE 9.0 mph 12.0 mph 93% 0.00 in 0.00 W/m2
07:04 19.9 °F 18.2 °F 30.27 in South 7.0 mph 12.0 mph 93% 0.00 in 0.00 W/m2
07:09 20.0 °F 18.3 °F 30.26 in SSW 6.0 mph 10.0 mph 93% 0.00 in 0.00 W/m2
07:14 20.0 °F 18.3 °F 30.26 in South 13.0 mph 13.0 mph 93% 0.00 in 0.00 W/m2
07:19 20.0 °F 18.3 °F 30.26 in South 4.0 mph 13.0 mph 93% 0.00 in 0.00 W/m2
07:24 20.1 °F 18.4 °F 30.26 in South 4.0 mph 11.0 mph 93% 0.00 in 0.00 W/m2
07:29 20.1 °F 18.4 °F 30.26 in SSW 9.0 mph 10.0 mph 93% 0.00 in 0.00 W/m2
07:34 20.1 °F 18.4 °F 30.26 in SSW 7.0 mph 11.0 mph 93% 0.00 in 0.00 W/m2
07:39 20.1 °F 18.4 °F 30.26 in SSW 5.0 mph 11.0 mph 93% 0.00 in 0.00 W/m2
07:44 20.1 °F 18.4 °F 30.26 in South 6.0 mph 10.0 mph 93% 0.00 in 0.00 W/m2
07:49 20.1 °F 18.4 °F 30.25 in South 6.0 mph 9.0 mph 93% 0.00 in 0.00 W/m2
07:54 20.1 °F 18.4 °F 30.25 in South 6.0 mph 9.0 mph 93% 0.00 in 0.00 W/m2
07:59 20.1 °F 18.4 °F 30.25 in South 7.0 mph 9.0 mph 93% 0.00 in 0.00 W/m2
08:04 20.2 °F 18.5 °F 30.25 in South 6.0 mph 11.0 mph 93% 0.00 in 0.00 W/m2
08:09 20.1 °F 18.4 °F 30.25 in South 3.0 mph 11.0 mph 93% 0.00 in 0.00 W/m2
08:14 20.2 °F 18.5 °F 30.25 in South 6.0 mph 10.0 mph 93% 0.00 in 0.00 W/m2
08:19 20.2 °F 18.5 °F 30.25 in South 6.0 mph 10.0 mph 93% 0.00 in 0.00 W/m2
08:24 20.2 °F 18.5 °F 30.25 in South 5.0 mph 8.0 mph 93% 0.00 in 0.00 W/m2
08:29 20.2 °F 18.5 °F 30.25 in South 6.0 mph 8.0 mph 93% 0.00 in 5.00 W/m2
08:34 20.2 °F 18.5 °F 30.25 in South 4.0 mph 8.0 mph 93% 0.00 in 5.00 W/m2
08:39 20.2 °F 18.5 °F 30.25 in South 3.0 mph 9.0 mph 93% 0.00 in 7.00 W/m2
08:44 20.2 °F 18.5 °F 30.25 in South 9.0 mph 10.0 mph 93% 0.00 in 11.00 W/m2
08:49 20.2 °F 18.5 °F 30.25 in South 6.0 mph 10.0 mph 93% 0.00 in 14.00 W/m2
08:54 20.3 °F 18.6 °F 30.25 in South 8.0 mph 10.0 mph 93% 0.00 in 14.00 W/m2
08:59 20.3 °F 18.6 °F 30.25 in SSW 6.0 mph 10.0 mph 93% 0.00 in 18.00 W/m2
09:04 20.3 °F 18.6 °F 30.25 in South 7.0 mph 11.0 mph 93% 0.00 in 16.00 W/m2
09:09 20.4 °F 18.7 °F 30.25 in South 5.0 mph 11.0 mph 93% 0.00 in 28.00 W/m2
09:14 20.5 °F 18.8 °F 30.25 in South 5.0 mph 9.0 mph 93% 0.00 in 37.00 W/m2
09:19 20.6 °F 18.9 °F 30.25 in SW 5.0 mph 9.0 mph 93% 0.00 in 42.00 W/m2
09:24 20.7 °F 19.0 °F 30.25 in South 6.0 mph 9.0 mph 93% 0.00 in 49.00 W/m2
09:29 20.8 °F 19.1 °F 30.25 in SSW 5.0 mph 9.0 mph 93% 0.00 in 49.00 W/m2
09:34 20.8 °F 19.1 °F 30.24 in SSW 6.0 mph 8.0 mph 93% 0.00 in 63.00 W/m2
09:39 20.9 °F 19.2 °F 30.25 in South 6.0 mph 9.0 mph 93% 0.00 in 70.00 W/m2
09:44 20.9 °F 19.2 °F 30.25 in SSW 4.0 mph 10.0 mph 93% 0.00 in 60.00 W/m2
09:49 21.0 °F 19.3 °F 30.25 in South 5.0 mph 10.0 mph 93% 0.00 in 65.00 W/m2
09:54 21.2 °F 19.5 °F 30.25 in SSW 3.0 mph 8.0 mph 93% 0.00 in 74.00 W/m2
09:59 21.3 °F 19.6 °F 30.25 in SSW 4.0 mph 7.0 mph 93% 0.00 in 79.00 W/m2
10:04 21.3 °F 19.6 °F 30.24 in SSW 6.0 mph 8.0 mph 93% 0.00 in 72.00 W/m2
10:09 21.3 °F 19.6 °F 30.24 in South 5.0 mph 8.0 mph 93% 0.00 in 83.00 W/m2
10:14 21.4 °F 19.7 °F 30.24 in South 5.0 mph 9.0 mph 93% 0.00 in 83.00 W/m2
10:19 21.5 °F 20.0 °F 30.24 in South 7.0 mph 9.0 mph 94% 0.00 in 109.00 W/m2
10:24 21.6 °F 20.1 °F 30.24 in South 5.0 mph 9.0 mph 94% 0.00 in 118.00 W/m2
10:29 21.7 °F 20.2 °F 30.25 in SSW 3.0 mph 8.0 mph 94% 0.00 in 109.00 W/m2
10:34 21.8 °F 20.3 °F 30.25 in SSW 7.0 mph 8.0 mph 94% 0.00 in 105.00 W/m2
10:39 21.9 °F 20.4 °F 30.25 in SSW 7.0 mph 8.0 mph 94% 0.00 in 128.00 W/m2
10:44 22.0 °F 20.5 °F 30.25 in SW 2.0 mph 8.0 mph 94% 0.00 in 151.00 W/m2
10:49 22.2 °F 20.7 °F 30.25 in South 4.0 mph 7.0 mph 94% 0.00 in 142.00 W/m2
10:54 22.2 °F 20.7 °F 30.25 in SSW 3.0 mph 7.0 mph 94% 0.00 in 153.00 W/m2
10:59 22.4 °F 20.9 °F 30.25 in SW 4.0 mph 9.0 mph 94% 0.00 in 151.00 W/m2
11:04 22.4 °F 20.9 °F 30.25 in SSW 6.0 mph 9.0 mph 94% 0.00 in 156.00 W/m2
11:09 22.6 °F 21.1 °F 30.25 in South 5.0 mph 7.0 mph 94% 0.00 in 144.00 W/m2
11:14 22.7 °F 21.2 °F 30.25 in SSW 3.0 mph 7.0 mph 94% 0.00 in 156.00 W/m2
11:19 22.7 °F 21.2 °F 30.25 in SSW 5.0 mph 7.0 mph 94% 0.00 in 153.00 W/m2
11:24 22.9 °F 21.4 °F 30.24 in SSW 2.0 mph 7.0 mph 94% 0.00 in 148.00 W/m2
11:29 23.0 °F 21.5 °F 30.24 in SSW 5.0 mph 7.0 mph 94% 0.00 in 160.00 W/m2
11:34 23.1 °F 21.6 °F 30.24 in SSW 3.0 mph 7.0 mph 94% 0.00 in 146.00 W/m2
11:39 23.1 °F 21.6 °F 30.24 in South 6.0 mph 6.0 mph 94% 0.00 in 155.00 W/m2
11:44 23.2 °F 21.7 °F 30.24 in SW 2.0 mph 6.0 mph 94% 0.00 in 204.00 W/m2
11:49 23.3 °F 21.8 °F 30.23 in SSW 2.0 mph 6.0 mph 94% 0.00 in 185.00 W/m2
11:54 23.4 °F 21.9 °F 30.23 in SSW 4.0 mph 6.0 mph 94% 0.00 in 176.00 W/m2
11:59 23.7 °F 22.2 °F 30.23 in SSW 5.0 mph 7.0 mph 94% 0.00 in 183.00 W/m2
12:04 23.8 °F 22.3 °F 30.23 in SSW 3.0 mph 7.0 mph 94% 0.00 in 179.00 W/m2
12:09 23.9 °F 22.4 °F 30.22 in SSW 7.0 mph 7.0 mph 94% 0.00 in 197.00 W/m2
12:14 23.9 °F 22.4 °F 30.22 in SW 3.0 mph 7.0 mph 94% 0.00 in 211.00 W/m2
12:19 24.0 °F 22.5 °F 30.22 in South 5.0 mph 8.0 mph 94% 0.00 in 213.00 W/m2
12:24 24.1 °F 22.6 °F 30.22 in SSW 5.0 mph 8.0 mph 94% 0.00 in 272.00 W/m2
12:29 24.4 °F 22.9 °F 30.22 in SSW 3.0 mph 6.0 mph 94% 0.00 in 234.00 W/m2
12:34 24.4 °F 22.9 °F 30.21 in SSW 3.0 mph 6.0 mph 94% 0.00 in 167.00 W/m2
12:39 24.5 °F 23.0 °F 30.21 in SSW 4.0 mph 7.0 mph 94% 0.00 in 227.00 W/m2
12:44 24.5 °F 23.0 °F 30.21 in SSW 7.0 mph 10.0 mph 94% 0.00 in 193.00 W/m2
12:49 24.6 °F 23.1 °F 30.21 in SSW 7.0 mph 10.0 mph 94% 0.00 in 265.00 W/m2
12:54 24.7 °F 23.2 °F 30.21 in SW 4.0 mph 8.0 mph 94% 0.00 in 255.00 W/m2
12:59 24.9 °F 23.4 °F 30.21 in South 6.0 mph 7.0 mph 94% 0.00 in 244.00 W/m2
13:04 25.2 °F 23.7 °F 30.21 in SSW 6.0 mph 7.0 mph 94% 0.00 in 253.00 W/m2
13:09 25.5 °F 24.0 °F 30.21 in SSW 3.0 mph 7.0 mph 94% 0.00 in 248.00 W/m2
13:14 25.8 °F 24.6 °F 30.21 in SSW 4.0 mph 7.0 mph 95% 0.00 in 283.00 W/m2
13:19 26.1 °F 24.9 °F 30.21 in SSW 4.0 mph 7.0 mph 95% 0.00 in 329.00 W/m2
13:24 26.5 °F 25.3 °F 30.20 in SSW 5.0 mph 6.0 mph 95% 0.00 in 251.00 W/m2
13:29 26.9 °F 25.7 °F 30.20 in SSW 4.0 mph 7.0 mph 95% 0.00 in 381.00 W/m2
13:34 27.3 °F 26.1 °F 30.20 in South 6.0 mph 7.0 mph 95% 0.00 in 366.00 W/m2
13:39 27.7 °F 26.5 °F 30.20 in SSW 5.0 mph 7.0 mph 95% 0.00 in 366.00 W/m2
13:44 28.1 °F 26.9 °F 30.20 in SSW 4.0 mph 7.0 mph 95% 0.00 in 359.00 W/m2
13:49 28.3 °F 26.8 °F 30.20 in SSW 6.0 mph 7.0 mph 94% 0.00 in 355.00 W/m2
13:54 28.4 °F 26.9 °F 30.20 in SSW 4.0 mph 7.0 mph 94% 0.00 in 352.00 W/m2
13:59 28.5 °F 27.0 °F 30.20 in SSW 4.0 mph 7.0 mph 94% 0.00 in 346.00 W/m2
14:04 28.7 °F 27.2 °F 30.19 in SSW 6.0 mph 7.0 mph 94% 0.00 in 341.00 W/m2
14:09 28.8 °F 27.3 °F 30.19 in SSW 4.0 mph 7.0 mph 94% 0.00 in 336.00 W/m2
14:14 28.9 °F 27.4 °F 30.19 in South 6.0 mph 9.0 mph 94% 0.00 in 330.00 W/m2
14:19 28.9 °F 27.4 °F 30.19 in South 3.0 mph 9.0 mph 94% 0.00 in 323.00 W/m2
14:24 29.4 °F 27.9 °F 30.19 in SSW 6.0 mph 8.0 mph 94% 0.00 in 316.00 W/m2
14:29 29.4 °F 27.9 °F 30.19 in SW 5.0 mph 8.0 mph 94% 0.00 in 309.00 W/m2
14:34 29.6 °F 28.1 °F 30.19 in SSW 3.0 mph 8.0 mph 94% 0.00 in 302.00 W/m2
14:39 29.8 °F 28.0 °F 30.18 in SSW 5.0 mph 7.0 mph 93% 0.00 in 294.00 W/m2
14:44 29.9 °F 28.1 °F 30.18 in SSW 4.0 mph 7.0 mph 93% 0.00 in 287.00 W/m2
14:49 30.2 °F 28.4 °F 30.18 in SSW 3.0 mph 7.0 mph 93% 0.00 in 274.00 W/m2
14:54 30.7 °F 28.9 °F 30.18 in South 5.0 mph 7.0 mph 93% 0.00 in 265.00 W/m2
14:59 31.0 °F 28.7 °F 30.18 in South 3.0 mph 7.0 mph 91% 0.00 in 257.00 W/m2
15:04 31.1 °F 28.5 °F 30.18 in South 4.0 mph 8.0 mph 90% 0.00 in 246.00 W/m2
15:09 31.4 °F 28.5 °F 30.18 in South 3.0 mph 8.0 mph 89% 0.00 in 234.00 W/m2
15:14 31.7 °F 28.8 °F 30.18 in SSW 5.0 mph 7.0 mph 89% 0.00 in 221.00 W/m2
15:19 31.9 °F 28.5 °F 30.18 in SSW 5.0 mph 7.0 mph 87% 0.00 in 209.00 W/m2
15:24 32.1 °F 28.4 °F 30.17 in SSW 7.0 mph 7.0 mph 86% 0.00 in 197.00 W/m2
15:29 32.1 °F 27.8 °F 30.17 in South 3.0 mph 9.0 mph 84% 0.00 in 185.00 W/m2
15:34 32.1 °F 27.5 °F 30.17 in South 5.0 mph 9.0 mph 83% 0.00 in 174.00 W/m2
15:39 32.3 °F 27.7 °F 30.17 in South 6.0 mph 8.0 mph 83% 0.00 in 160.00 W/m2
15:44 32.5 °F 27.6 °F 30.17 in South 5.0 mph 7.0 mph 82% 0.00 in 148.00 W/m2
15:49 32.7 °F 27.5 °F 30.17 in SSW 5.0 mph 8.0 mph 81% 0.00 in 135.00 W/m2
15:54 32.8 °F 27.3 °F 30.16 in South 7.0 mph 9.0 mph 80% 0.00 in 123.00 W/m2
15:59 33.0 °F 27.5 °F 30.16 in SSW 6.0 mph 9.0 mph 80% 0.00 in 109.00 W/m2
16:04 33.2 °F 27.4 °F 30.17 in SSW 6.0 mph 8.0 mph 79% 0.00 in 97.00 W/m2
16:09 33.5 °F 27.7 °F 30.17 in SSW 4.0 mph 8.0 mph 79% 0.00 in 88.00 W/m2
16:14 33.6 °F 27.5 °F 30.17 in SSW 3.0 mph 7.0 mph 78% 0.00 in 77.00 W/m2
16:19 33.7 °F 27.6 °F 30.17 in SSW 3.0 mph 7.0 mph 78% 0.00 in 69.00 W/m2
16:24 33.7 °F 27.3 °F 30.17 in South 4.0 mph 6.0 mph 77% 0.00 in 58.00 W/m2
16:29 33.5 °F 27.1 °F 30.18 in SSW 1.0 mph 6.0 mph 77% 0.00 in 47.00 W/m2
16:34 33.6 °F 27.2 °F 30.18 in SSW 2.0 mph 5.0 mph 77% 0.00 in 35.00 W/m2
16:39 33.5 °F 27.1 °F 30.18 in SSW 2.0 mph 4.0 mph 77% 0.00 in 28.00 W/m2
16:44 33.4 °F 27.0 °F 30.18 in SSW 2.0 mph 4.0 mph 77% 0.00 in 23.00 W/m2
16:49 33.3 °F 26.9 °F 30.18 in SSW 1.0 mph 4.0 mph 77% 0.00 in 19.00 W/m2
16:54 32.9 °F 26.5 °F 30.18 in SSW 1.0 mph 4.0 mph 77% 0.00 in 18.00 W/m2
16:59 32.7 °F 26.6 °F 30.18 in SSW 1.0 mph 2.0 mph 78% 0.00 in 16.00 W/m2
17:04 32.7 °F 26.6 °F 30.18 in Calm   2.0 mph 78% 0.00 in 12.00 W/m2
17:09 32.7 °F 26.6 °F 30.18 in Calm   2.0 mph 78% 0.00 in 11.00 W/m2
17:14 32.5 °F 26.4 °F 30.18 in Calm   1.0 mph 78% 0.00 in 9.00 W/m2
17:19 32.2 °F 26.1 °F 30.18 in Calm   1.0 mph 78% 0.00 in 7.00 W/m2
17:24 31.7 °F 25.6 °F 30.18 in Calm     78% 0.00 in 5.00 W/m2
17:29 31.0 °F 25.2 °F 30.18 in Calm     79% 0.00 in 0.00 W/m2
17:34 30.5 °F 25.1 °F 30.18 in Calm     80% 0.00 in 0.00 W/m2
17:39 30.1 °F 25.0 °F 30.18 in Calm     81% 0.00 in 0.00 W/m2
17:44 29.7 °F 24.9 °F 30.18 in Calm     82% 0.00 in 0.00 W/m2
17:49 29.4 °F 24.9 °F 30.18 in Calm     83% 0.00 in 0.00 W/m2
17:54 29.2 °F 25.0 °F 30.18 in Calm     84% 0.00 in 0.00 W/m2
17:59 29.1 °F 24.9 °F 30.18 in SSW 1.0 mph 2.0 mph 84% 0.00 in 0.00 W/m2
18:04 28.8 °F 24.6 °F 30.18 in Calm   2.0 mph 84% 0.00 in 0.00 W/m2
18:09 28.6 °F 24.7 °F 30.18 in SSW 1.0 mph 2.0 mph 85% 0.00 in 0.00 W/m2
18:14 28.4 °F 24.7 °F 30.18 in SSW 2.0 mph 3.0 mph 86% 0.00 in 0.00 W/m2
18:19 28.3 °F 24.6 °F 30.18 in SSW 1.0 mph 3.0 mph 86% 0.00 in 0.00 W/m2
18:24 28.2 °F 24.8 °F 30.18 in SSW 1.0 mph 3.0 mph 87% 0.00 in 0.00 W/m2
18:29 28.0 °F 24.4 °F 30.18 in NW 3.0 mph 4.0 mph 86% 0.00 in 0.00 W/m2
18:34 27.8 °F 24.4 °F 30.18 in NW 2.0 mph 4.0 mph 87% 0.00 in 0.00 W/m2
18:39 27.6 °F 24.2 °F 30.18 in NW 2.0 mph 4.0 mph 87% 0.00 in 0.00 W/m2
18:44 27.5 °F 24.1 °F 30.18 in NNW 3.0 mph 4.0 mph 87% 0.00 in 0.00 W/m2
18:49 27.2 °F 23.8 °F 30.18 in NNW 2.0 mph 6.0 mph 87% 0.00 in 0.00 W/m2
18:54 27.0 °F 23.6 °F 30.18 in NNW 3.0 mph 6.0 mph 87% 0.00 in 0.00 W/m2
18:59 26.8 °F 23.4 °F 30.18 in NNW 3.0 mph 4.0 mph 87% 0.00 in 0.00 W/m2
19:04 26.5 °F 23.2 °F 30.18 in NNW 3.0 mph 5.0 mph 87% 0.00 in 0.00 W/m2
19:09 26.0 °F 22.7 °F 30.18 in NNW 2.0 mph 5.0 mph 87% 0.00 in 0.00 W/m2
19:14 25.5 °F 22.2 °F 30.18 in NNW 4.0 mph 6.0 mph 87% 0.00 in 0.00 W/m2
19:19 25.1 °F 21.8 °F 30.19 in NNW 4.0 mph 6.0 mph 87% 0.00 in 0.00 W/m2
19:24 24.7 °F 21.4 °F 30.19 in North 3.0 mph 5.0 mph 87% 0.00 in 0.00 W/m2
19:29 24.4 °F 21.4 °F 30.19 in NNW 4.0 mph 5.0 mph 88% 0.00 in 0.00 W/m2
19:34 24.2 °F 21.2 °F 30.19 in North 4.0 mph 6.0 mph 88% 0.00 in 0.00 W/m2
19:39 24.2 °F 21.4 °F 30.19 in NNW 5.0 mph 6.0 mph 89% 0.00 in 0.00 W/m2
19:44 24.2 °F 21.4 °F 30.19 in NNW 5.0 mph 6.0 mph 89% 0.00 in 0.00 W/m2
19:49 24.2 °F 21.4 °F 30.19 in NNW 4.0 mph 6.0 mph 89% 0.00 in 0.00 W/m2
19:54 24.1 °F 21.3 °F 30.19 in NNW 3.0 mph 6.0 mph 89% 0.00 in 0.00 W/m2
19:59 24.0 °F 21.2 °F 30.19 in NNW 4.0 mph 5.0 mph 89% 0.00 in 0.00 W/m2
20:04 23.9 °F 21.1 °F 30.19 in NNW 4.0 mph 5.0 mph 89% 0.00 in 0.00 W/m2
20:09 23.9 °F 21.1 °F 30.19 in NNW 3.0 mph 5.0 mph 89% 0.00 in 0.00 W/m2
20:14 23.9 °F 21.1 °F 30.19 in NW 2.0 mph 5.0 mph 89% 0.00 in 0.00 W/m2
20:19 23.8 °F 21.0 °F 30.19 in NW 2.0 mph 5.0 mph 89% 0.00 in 0.00 W/m2
20:24 23.6 °F 20.8 °F 30.19 in NW 2.0 mph 4.0 mph 89% 0.00 in 0.00 W/m2
20:29 23.4 °F 20.6 °F 30.18 in Calm   4.0 mph 89% 0.00 in 0.00 W/m2
20:34 23.2 °F 20.4 °F 30.18 in NW 3.0 mph 3.0 mph 89% 0.00 in 0.00 W/m2
20:39 22.8 °F 20.0 °F 30.18 in North 4.0 mph 5.0 mph 89% 0.00 in 0.00 W/m2
20:44 22.6 °F 19.8 °F 30.19 in NNW 6.0 mph 7.0 mph 89% 0.00 in 0.00 W/m2
20:49 22.5 °F 20.0 °F 30.19 in NNW 6.0 mph 7.0 mph 90% 0.00 in 0.00 W/m2
20:54 22.4 °F 19.9 °F 30.19 in NNW 4.0 mph 7.0 mph 90% 0.00 in 0.00 W/m2
20:59 22.3 °F 19.8 °F 30.19 in NNW 4.0 mph 7.0 mph 90% 0.00 in 0.00 W/m2
21:04 22.1 °F 19.6 °F 30.19 in NNW 5.0 mph 7.0 mph 90% 0.00 in 0.00 W/m2
21:09 21.9 °F 19.4 °F 30.19 in NNW 4.0 mph 7.0 mph 90% 0.00 in 0.00 W/m2
21:14 21.8 °F 19.3 °F 30.19 in NNW 4.0 mph 8.0 mph 90% 0.00 in 0.00 W/m2
21:19 21.6 °F 19.1 °F 30.19 in NNW 5.0 mph 8.0 mph 90% 0.00 in 0.00 W/m2
21:24 21.4 °F 18.9 °F 30.19 in NNW 5.0 mph 7.0 mph 90% 0.00 in 0.00 W/m2
21:29 21.3 °F 18.8 °F 30.19 in North 6.0 mph 9.0 mph 90% 0.00 in 0.00 W/m2
21:34 21.2 °F 18.7 °F 30.19 in North 5.0 mph 9.0 mph 90% 0.00 in 0.00 W/m2
21:39 21.2 °F 18.7 °F 30.19 in NNW 7.0 mph 8.0 mph 90% 0.00 in 0.00 W/m2
21:44 21.1 °F 18.9 °F 30.19 in North 4.0 mph 8.0 mph 91% 0.00 in 0.00 W/m2
21:49 20.8 °F 18.3 °F 30.19 in North 8.0 mph 8.0 mph 90% 0.00 in 0.00 W/m2
21:54 20.7 °F 18.2 °F 30.19 in North 7.0 mph 8.0 mph 90% 0.00 in 0.00 W/m2
21:59 20.6 °F 18.4 °F 30.19 in North 5.0 mph 8.0 mph 91% 0.00 in 0.00 W/m2
22:04 20.3 °F 17.8 °F 30.19 in North 7.0 mph 8.0 mph 90% 0.00 in 0.00 W/m2
22:09 20.0 °F 17.5 °F 30.19 in North 5.0 mph 8.0 mph 90% 0.00 in 0.00 W/m2
22:14 20.0 °F 17.8 °F 30.19 in North 6.0 mph 8.0 mph 91% 0.00 in 0.00 W/m2
22:19 20.0 °F 17.8 °F 30.19 in NNW 4.0 mph 8.0 mph 91% 0.00 in 0.00 W/m2
22:24 19.7 °F 17.2 °F 30.20 in NNW 4.0 mph 8.0 mph 90% 0.00 in 0.00 W/m2
22:29 19.3 °F 16.8 °F 30.20 in NNW 5.0 mph 6.0 mph 90% 0.00 in 0.00 W/m2
22:34 19.1 °F 16.7 °F 30.20 in NNW 4.0 mph 5.0 mph 90% 0.00 in 0.00 W/m2
22:39 18.9 °F 16.5 °F 30.20 in NNW 5.0 mph 5.0 mph 90% 0.00 in 0.00 W/m2
22:44 18.7 °F 16.5 °F 30.20 in NNW 5.0 mph 7.0 mph 91% 0.00 in 0.00 W/m2
22:49 18.6 °F 16.4 °F 30.20 in NNW 5.0 mph 7.0 mph 91% 0.00 in 0.00 W/m2
22:54 18.6 °F 16.4 °F 30.20 in NNW 7.0 mph 7.0 mph 91% 0.00 in 0.00 W/m2
22:59 18.6 °F 16.4 °F 30.20 in NNW 6.0 mph 7.0 mph 91% 0.00 in 0.00 W/m2
23:04 18.6 °F 16.4 °F 30.20 in NNW 5.0 mph 7.0 mph 91% 0.00 in 0.00 W/m2
23:09 18.5 °F 16.3 °F 30.20 in NNW 5.0 mph 7.0 mph 91% 0.00 in 0.00 W/m2
23:14 18.4 °F 16.2 °F 30.20 in NNW 6.0 mph 7.0 mph 91% 0.00 in 0.00 W/m2
23:19 18.4 °F 16.2 °F 30.20 in NNW 5.0 mph 8.0 mph 91% 0.00 in 0.00 W/m2
23:24 18.4 °F 16.2 °F 30.20 in North 5.0 mph 8.0 mph 91% 0.00 in 0.00 W/m2
23:29 18.4 °F 16.2 °F 30.20 in NNW 4.0 mph 6.0 mph 91% 0.00 in 0.00 W/m2
23:34 18.2 °F 16.0 °F 30.21 in NNW 5.0 mph 6.0 mph 91% 0.00 in 0.00 W/m2
23:39 18.1 °F 15.9 °F 30.21 in NNW 2.0 mph 6.0 mph 91% 0.00 in 0.00 W/m2
23:44 18.0 °F 15.8 °F 30.21 in NNW 3.0 mph 6.0 mph 91% 0.00 in 0.00 W/m2
23:49 18.0 °F 15.8 °F 30.21 in NNW 3.0 mph 5.0 mph 91% 0.00 in 0.00 W/m2
23:54 17.9 °F 15.7 °F 30.21 in NNW 3.0 mph 4.0 mph 91% 0.00 in 0.00 W/m2
23:59 17.7 °F 15.5 °F 30.21 in NNW 2.0 mph 4.0 mph 91% 0.00 in 0.00 W/m2
Bismarck, North Dakota, USA
Compliments of Weather Underground - 4 mb